sensor_id;sensor_type;location;lat;lon;timestamp;pressure;altitude;pressure_sealevel;temperature;humidity
28310;BME280;15571;50.974;13.936;2023-03-19T01:46:34;99948.56;;;8.23;100.00
28310;BME280;15571;50.974;13.936;2023-03-19T01:50:14;99941.63;;;8.20;100.00
28310;BME280;15571;50.974;13.936;2023-03-19T01:53:26;99946.81;;;8.19;100.00
28310;BME280;15571;50.974;13.936;2023-03-19T01:56:46;99942.47;;;8.16;100.00
28310;BME280;15571;50.974;13.936;2023-03-19T01:59:58;99940.75;;;8.15;100.00
28310;BME280;15571;50.974;13.936;2023-03-19T02:03:21;99937.25;;;8.13;100.00
28310;BME280;15571;50.974;13.936;2023-03-19T02:06:49;99944.25;;;8.11;100.00
28310;BME280;15571;50.974;13.936;2023-03-19T02:09:53;99946.84;;;8.11;100.00
28310;BME280;15571;50.974;13.936;2023-03-19T02:12:56;99949.47;;;8.11;100.00
28310;BME280;15571;50.974;13.936;2023-03-19T02:15:58;99954.66;;;8.11;100.00
28310;BME280;15571;50.974;13.936;2023-03-19T02:19:05;99952.94;;;8.10;100.00
28310;BME280;15571;50.974;13.936;2023-03-19T02:22:08;99954.66;;;8.11;100.00
28310;BME280;15571;50.974;13.936;2023-03-19T02:25:13;99948.59;;;8.12;100.00
28310;BME280;15571;50.974;13.936;2023-03-19T02:28:21;99948.56;;;8.09;100.00
28310;BME280;15571;50.974;13.936;2023-03-19T02:31:27;99952.06;;;8.08;100.00
28310;BME280;15571;50.974;13.936;2023-03-19T02:34:36;99954.66;;;8.09;100.00
28310;BME280;15571;50.974;13.936;2023-03-19T02:37:40;99952.06;;;8.11;100.00
28310;BME280;15571;50.974;13.936;2023-03-19T02:40:43;99952.03;;;8.09;100.00
28310;BME280;15571;50.974;13.936;2023-03-19T02:43:49;99950.28;;;8.08;100.00
28310;BME280;15571;50.974;13.936;2023-03-19T02:46:53;99952.91;;;8.08;100.00
28310;BME280;15571;50.974;13.936;2023-03-19T02:49:57;99949.44;;;8.08;100.00
28310;BME280;15571;50.974;13.936;2023-03-19T02:52:59;99947.72;;;8.10;100.00
28310;BME280;15571;50.974;13.936;2023-03-19T02:56:01;99947.69;;;8.12;100.00
28310;BME280;15571;50.974;13.936;2023-03-19T02:59:08;99947.72;;;8.10;100.00
28310;BME280;15571;50.974;13.936;2023-03-19T03:02:10;99953.81;;;8.12;100.00
28310;BME280;15571;50.974;13.936;2023-03-19T03:05:12;99951.19;;;8.09;100.00
28310;BME280;15571;50.974;13.936;2023-03-19T03:08:16;99949.44;;;8.08;100.00
28310;BME280;15571;50.974;13.936;2023-03-19T03:11:20;99955.53;;;8.07;100.00
28310;BME280;15571;50.974;13.936;2023-03-19T03:14:23;99949.44;;;8.03;100.00
28310;BME280;15571;50.974;13.936;2023-03-19T03:17:26;99949.44;;;8.02;100.00
28310;BME280;15571;50.974;13.936;2023-03-19T03:20:33;99950.31;;;7.98;100.00
28310;BME280;15571;50.974;13.936;2023-03-19T03:23:37;99955.53;;;7.96;100.00
28310;BME280;15571;50.974;13.936;2023-03-19T03:26:42;99960.72;;;7.94;100.00
28310;BME280;15571;50.974;13.936;2023-03-19T03:29:47;99961.63;;;7.93;100.00
28310;BME280;15571;50.974;13.936;2023-03-19T03:32:50;99963.34;;;7.91;100.00
28310;BME280;15571;50.974;13.936;2023-03-19T03:35:52;99974.63;;;7.90;100.00
28310;BME280;15571;50.974;13.936;2023-03-19T03:38:55;99973.75;;;7.88;100.00
28310;BME280;15571;50.974;13.936;2023-03-19T03:41:59;99967.69;;;7.88;100.00
28310;BME280;15571;50.974;13.936;2023-03-19T03:45:08;99969.41;;;7.87;100.00
28310;BME280;15571;50.974;13.936;2023-03-19T03:48:11;99965.06;;;7.86;100.00
28310;BME280;15571;50.974;13.936;2023-03-19T03:51:18;99961.59;;;7.81;100.00
28310;BME280;15571;50.974;13.936;2023-03-19T03:54:20;99969.41;;;7.81;100.00
28310;BME280;15571;50.974;13.936;2023-03-19T03:57:22;99961.56;;;7.79;100.00
28310;BME280;15571;50.974;13.936;2023-03-19T04:00:27;99965.03;;;7.77;100.00
28310;BME280;15571;50.974;13.936;2023-03-19T04:03:29;99959.84;;;7.77;100.00
28310;BME280;15571;50.974;13.936;2023-03-19T04:06:35;99971.97;;;7.75;100.00
28310;BME280;15571;50.974;13.936;2023-03-19T04:09:55;99980.69;;;7.74;100.00
28310;BME280;15571;50.974;13.936;2023-03-19T04:13:01;99969.38;;;7.73;100.00
28310;BME280;15571;50.974;13.936;2023-03-19T04:16:08;99976.34;;;7.73;100.00
28310;BME280;15571;50.974;13.936;2023-03-19T04:19:13;99977.22;;;7.72;100.00
28310;BME280;15571;50.974;13.936;2023-03-19T04:22:16;99975.47;;;7.71;100.00
28310;BME280;15571;50.974;13.936;2023-03-19T04:25:19;99978.94;;;7.70;100.00
28310;BME280;15571;50.974;13.936;2023-03-19T04:28:24;99983.25;;;7.68;100.00
28310;BME280;15571;50.974;13.936;2023-03-19T04:31:29;99985.00;;;7.64;100.00
28310;BME280;15571;50.974;13.936;2023-03-19T04:34:33;99983.25;;;7.63;100.00
28310;BME280;15571;50.974;13.936;2023-03-19T04:37:37;99978.06;;;7.61;100.00
28310;BME280;15571;50.974;13.936;2023-03-19T04:40:40;99977.19;;;7.62;100.00
28310;BME280;15571;50.974;13.936;2023-03-19T04:43:47;99977.19;;;7.62;100.00
28310;BME280;15571;50.974;13.936;2023-03-19T04:46:53;99978.06;;;7.61;100.00
28310;BME280;15571;50.974;13.936;2023-03-19T04:50:00;99966.75;;;7.62;100.00
28310;BME280;15571;50.974;13.936;2023-03-19T04:53:05;99982.38;;;7.59;100.00
28310;BME280;15571;50.974;13.936;2023-03-19T04:56:11;99978.91;;;7.56;100.00
28310;BME280;15571;50.974;13.936;2023-03-19T04:59:18;99979.75;;;7.56;100.00
28310;BME280;15571;50.974;13.936;2023-03-19T05:02:21;99973.66;;;7.53;100.00
28310;BME280;15571;50.974;13.936;2023-03-19T05:05:25;99984.13;;;7.54;100.00
28310;BME280;15571;50.974;13.936;2023-03-19T05:08:30;99982.38;;;7.55;100.00
28310;BME280;15571;50.974;13.936;2023-03-19T05:11:34;99982.34;;;7.50;100.00
28310;BME280;15571;50.974;13.936;2023-03-19T05:14:48;99988.41;;;7.51;100.00
28310;BME280;15571;50.974;13.936;2023-03-19T05:17:59;99984.97;;;7.48;100.00
28310;BME280;15571;50.974;13.936;2023-03-19T05:21:11;99991.88;;;7.50;100.00
28310;BME280;15571;50.974;13.936;2023-03-19T05:24:14;99988.41;;;7.51;100.00
28310;BME280;15571;50.974;13.936;2023-03-19T05:27:19;99991.91;;;7.51;100.00
28310;BME280;15571;50.974;13.936;2023-03-19T05:30:31;99985.81;;;7.49;100.00
28310;BME280;15571;50.974;13.936;2023-03-19T05:33:48;99979.72;;;7.47;100.00
28310;BME280;15571;50.974;13.936;2023-03-19T05:36:55;99984.06;;;7.48;100.00
28310;BME280;15571;50.974;13.936;2023-03-19T05:39:59;99994.50;;;7.48;100.00
28310;BME280;15571;50.974;13.936;2023-03-19T05:43:03;99989.28;;;7.43;100.00
28310;BME280;15571;50.974;13.936;2023-03-19T05:46:05;99996.22;;;7.43;100.00
28310;BME280;15571;50.974;13.936;2023-03-19T05:49:12;99992.75;;;7.39;100.00
28310;BME280;15571;50.974;13.936;2023-03-19T05:52:19;99992.72;;;7.42;100.00
28310;BME280;15571;50.974;13.936;2023-03-19T05:55:25;100001.44;;;7.43;100.00
28310;BME280;15571;50.974;13.936;2023-03-19T05:58:39;100003.19;;;7.44;100.00
28310;BME280;15571;50.974;13.936;2023-03-19T06:01:47;100017.91;;;7.42;100.00
28310;BME280;15571;50.974;13.936;2023-03-19T06:04:52;100016.19;;;7.42;100.00
28310;BME280;15571;50.974;13.936;2023-03-19T06:08:00;100010.09;;;7.45;100.00
28310;BME280;15571;50.974;13.936;2023-03-19T06:11:16;100012.72;;;7.46;100.00
28310;BME280;15571;50.974;13.936;2023-03-19T06:14:25;100006.66;;;7.49;100.00
28310;BME280;15571;50.974;13.936;2023-03-19T06:17:53;100007.56;;;7.54;100.00
28310;BME280;15571;50.974;13.936;2023-03-19T06:20:59;100013.66;;;7.58;100.00
28310;BME280;15571;50.974;13.936;2023-03-19T06:24:06;100020.59;;;7.60;100.00
28310;BME280;15571;50.974;13.936;2023-03-19T06:27:09;100017.13;;;7.61;100.00
28310;BME280;15571;50.974;13.936;2023-03-19T06:30:12;100018.00;;;7.65;100.00
28310;BME280;15571;50.974;13.936;2023-03-19T06:33:15;100010.19;;;7.63;100.00
28310;BME280;15571;50.974;13.936;2023-03-19T06:36:20;100013.66;;;7.66;100.00
28310;BME280;15571;50.974;13.936;2023-03-19T06:39:24;100014.53;;;7.69;100.00
28310;BME280;15571;50.974;13.936;2023-03-19T06:42:28;100018.88;;;7.70;100.00
28310;BME280;15571;50.974;13.936;2023-03-19T06:45:34;100009.31;;;7.72;100.00
28310;BME280;15571;50.974;13.936;2023-03-19T06:48:37;100016.28;;;7.75;100.00
28310;BME280;15571;50.974;13.936;2023-03-19T06:51:46;100011.94;;;7.77;100.00
28310;BME280;15571;50.974;13.936;2023-03-19T06:54:48;100011.06;;;7.79;100.00
28310;BME280;15571;50.974;13.936;2023-03-19T06:57:52;100013.69;;;7.84;100.00
28310;BME280;15571;50.974;13.936;2023-03-19T07:00:57;100019.78;;;7.85;100.00
28310;BME280;15571;50.974;13.936;2023-03-19T07:04:02;100015.44;;;7.88;100.00
28310;BME280;15571;50.974;13.936;2023-03-19T07:07:06;100018.94;;;7.90;100.00
28310;BME280;15571;50.974;13.936;2023-03-19T07:10:10;100029.38;;;7.93;100.00
28310;BME280;15571;50.974;13.936;2023-03-19T07:13:15;100025.91;;;7.91;100.00
28310;BME280;15571;50.974;13.936;2023-03-19T07:16:19;100032.84;;;7.92;100.00
28310;BME280;15571;50.974;13.936;2023-03-19T07:19:24;100041.53;;;7.98;100.00
28310;BME280;15571;50.974;13.936;2023-03-19T07:22:29;100041.53;;;7.98;100.00
28310;BME280;15571;50.974;13.936;2023-03-19T07:25:32;100046.75;;;8.01;100.00
28310;BME280;15571;50.974;13.936;2023-03-19T07:28:39;100038.06;;;8.00;100.00
28310;BME280;15571;50.974;13.936;2023-03-19T07:31:41;100041.56;;;8.05;100.00
28310;BME280;15571;50.974;13.936;2023-03-19T07:34:45;100045.03;;;8.09;100.00
28310;BME280;15571;50.974;13.936;2023-03-19T07:37:50;100040.69;;;8.14;100.00
28310;BME280;15571;50.974;13.936;2023-03-19T07:40:52;100045.94;;;8.20;100.00
28310;BME280;15571;50.974;13.936;2023-03-19T07:43:53;100037.25;;;8.26;100.00
28310;BME280;15571;50.974;13.936;2023-03-19T07:46:56;100028.56;;;8.32;100.00
28310;BME280;15571;50.974;13.936;2023-03-19T07:49:59;100023.31;;;8.39;100.00
28310;BME280;15571;50.974;13.936;2023-03-19T07:53:04;100023.34;;;8.46;100.00
28310;BME280;15571;50.974;13.936;2023-03-19T07:56:06;100025.97;;;8.56;100.00
28310;BME280;15571;50.974;13.936;2023-03-19T07:59:12;100027.72;;;8.65;100.00
28310;BME280;15571;50.974;13.936;2023-03-19T08:02:15;100026.84;;;8.71;100.00
28310;BME280;15571;50.974;13.936;2023-03-19T08:05:19;100026.81;;;8.77;100.00
28310;BME280;15571;50.974;13.936;2023-03-19T08:08:24;100027.69;;;8.88;100.00
28310;BME280;15571;50.974;13.936;2023-03-19T08:11:26;100022.44;;;8.95;100.00
28310;BME280;15571;50.974;13.936;2023-03-19T08:14:32;100022.44;;;9.01;100.00
28310;BME280;15571;50.974;13.936;2023-03-19T08:17:37;100029.38;;;9.05;100.00
28310;BME280;15571;50.974;13.936;2023-03-19T08:20:39;100037.22;;;9.10;100.00
28310;BME280;15571;50.974;13.936;2023-03-19T08:23:47;100036.31;;;9.12;100.00
28310;BME280;15571;50.974;13.936;2023-03-19T08:26:52;100036.28;;;9.22;100.00
28310;BME280;15571;50.974;13.936;2023-03-19T08:29:58;100038.03;;;9.23;100.00
28310;BME280;15571;50.974;13.936;2023-03-19T08:33:00;100043.25;;;9.30;100.00
28310;BME280;15571;50.974;13.936;2023-03-19T08:36:03;100038.00;;;9.35;100.00
28310;BME280;15571;50.974;13.936;2023-03-19T08:39:11;100030.13;;;9.41;100.00
28310;BME280;15571;50.974;13.936;2023-03-19T08:42:14;100034.47;;;9.45;100.00
28310;BME280;15571;50.974;13.936;2023-03-19T08:45:18;100043.16;;;9.50;100.00
28310;BME280;15571;50.974;13.936;2023-03-19T08:48:22;100031.84;;;9.55;100.00
28310;BME280;15571;50.974;13.936;2023-03-19T08:51:24;100034.41;;;9.62;100.00
28310;BME280;15571;50.974;13.936;2023-03-19T08:54:31;100032.66;;;9.69;100.00
28310;BME280;15571;50.974;13.936;2023-03-19T08:57:34;100038.72;;;9.77;100.00
28310;BME280;15571;50.974;13.936;2023-03-19T09:00:39;100035.19;;;9.83;100.00
28310;BME280;15571;50.974;13.936;2023-03-19T09:03:45;100040.38;;;9.89;99.55
28310;BME280;15571;50.974;13.936;2023-03-19T09:06:47;100045.56;;;9.95;99.79
28310;BME280;15571;50.974;13.936;2023-03-19T09:09:55;100041.16;;;10.02;100.00
28310;BME280;15571;50.974;13.936;2023-03-19T09:12:59;100042.91;;;10.06;99.81
28310;BME280;15571;50.974;13.936;2023-03-19T09:16:02;100034.13;;;10.17;99.96
28310;BME280;15571;50.974;13.936;2023-03-19T09:19:06;100035.81;;;10.24;99.94
28310;BME280;15571;50.974;13.936;2023-03-19T09:22:10;100040.97;;;10.30;99.28
28310;BME280;15571;50.974;13.936;2023-03-19T09:25:26;100038.31;;;10.35;98.80
28310;BME280;15571;50.974;13.936;2023-03-19T09:28:29;100040.06;;;10.42;98.46
28310;BME280;15571;50.974;13.936;2023-03-19T09:31:35;100040.03;;;10.45;98.91
28310;BME280;15571;50.974;13.936;2023-03-19T09:34:50;100039.94;;;10.54;98.55
28310;BME280;15571;50.974;13.936;2023-03-19T09:37:55;100036.44;;;10.58;97.55
28310;BME280;15571;50.974;13.936;2023-03-19T09:41:04;100038.94;;;10.69;97.44
28310;BME280;15571;50.974;13.936;2023-03-19T09:44:11;100036.28;;;10.74;97.20
28310;BME280;15571;50.974;13.936;2023-03-19T09:47:21;100035.38;;;10.81;97.35
28310;BME280;15571;50.974;13.936;2023-03-19T09:50:27;100030.09;;;10.86;97.28
28310;BME280;15571;50.974;13.936;2023-03-19T09:53:35;100026.53;;;10.93;97.48
28310;BME280;15571;50.974;13.936;2023-03-19T09:56:45;100017.72;;;11.00;97.86
28310;BME280;15571;50.974;13.936;2023-03-19T09:59:50;100015.06;;;11.03;96.45
28310;BME280;15571;50.974;13.936;2023-03-19T10:03:00;100015.81;;;11.15;97.13
28310;BME280;15571;50.974;13.936;2023-03-19T10:06:11;100015.72;;;11.23;97.98
28310;BME280;15571;50.974;13.936;2023-03-19T10:09:26;100011.31;;;11.25;97.84
28310;BME280;15571;50.974;13.936;2023-03-19T10:12:58;100005.91;;;11.39;97.08
28310;BME280;15571;50.974;13.936;2023-03-19T10:16:13;100011.97;;;11.42;96.42
28310;BME280;15571;50.974;13.936;2023-03-19T10:19:29;100010.16;;;11.49;93.95
28310;BME280;15571;50.974;13.936;2023-03-19T10:22:43;100010.09;;;11.55;95.37
28310;BME280;15571;50.974;13.936;2023-03-19T10:25:47;100010.91;;;11.60;95.87
28310;BME280;15571;50.974;13.936;2023-03-19T10:28:56;100018.72;;;11.63;93.95
28310;BME280;15571;50.974;13.936;2023-03-19T10:32:05;100015.09;;;11.72;94.66
28310;BME280;15571;50.974;13.936;2023-03-19T10:35:18;100012.41;;;11.78;94.35
28310;BME280;15571;50.974;13.936;2023-03-19T10:38:24;100013.22;;;11.82;93.80
28310;BME280;15571;50.974;13.936;2023-03-19T10:41:39;100008.72;;;11.90;93.38
28310;BME280;15571;50.974;13.936;2023-03-19T10:44:51;100013.06;;;11.93;91.81
28310;BME280;15571;50.974;13.936;2023-03-19T10:48:02;100006.91;;;11.98;92.76
28310;BME280;15571;50.974;13.936;2023-03-19T10:51:11;99999.78;;;12.07;93.01
28310;BME280;15571;50.974;13.936;2023-03-19T10:54:19;99999.63;;;12.18;92.51
28310;BME280;15571;50.974;13.936;2023-03-19T10:57:25;99995.19;;;12.21;93.55
28310;BME280;15571;50.974;13.936;2023-03-19T11:00:34;99992.38;;;12.32;93.33
28310;BME280;15571;50.974;13.936;2023-03-19T11:03:48;99989.75;;;12.34;91.12
28310;BME280;15571;50.974;13.936;2023-03-19T11:06:55;99987.84;;;12.42;90.56
28310;BME280;15571;50.974;13.936;2023-03-19T11:09:58;99988.56;;;12.53;91.81
28310;BME280;15571;50.974;13.936;2023-03-19T11:13:02;99990.16;;;12.59;93.10
28310;BME280;15571;50.974;13.936;2023-03-19T11:16:09;99980.44;;;12.66;89.70
28310;BME280;15571;50.974;13.936;2023-03-19T11:19:15;99996.03;;;12.75;89.43
28310;BME280;15571;50.974;13.936;2023-03-19T11:22:20;99984.53;;;12.82;90.09
28310;BME280;15571;50.974;13.936;2023-03-19T11:25:24;99980.94;;;12.88;89.70
28310;BME280;15571;50.974;13.936;2023-03-19T11:28:27;99980.84;;;12.91;90.18
28310;BME280;15571;50.974;13.936;2023-03-19T11:31:36;99980.00;;;12.90;90.24
28310;BME280;15571;50.974;13.936;2023-03-19T11:34:46;99975.47;;;12.99;90.95
28310;BME280;15571;50.974;13.936;2023-03-19T11:37:52;99979.06;;;12.93;87.74
28310;BME280;15571;50.974;13.936;2023-03-19T11:40:58;99980.63;;;13.03;88.43
28310;BME280;15571;50.974;13.936;2023-03-19T11:44:09;99976.22;;;13.04;88.50
28310;BME280;15571;50.974;13.936;2023-03-19T11:47:24;99971.81;;;13.06;89.01
28310;BME280;15571;50.974;13.936;2023-03-19T11:50:35;99971.69;;;13.12;88.00
28310;BME280;15571;50.974;13.936;2023-03-19T11:53:44;99969.00;;;13.15;88.39
28310;BME280;15571;50.974;13.936;2023-03-19T11:56:55;99971.56;;;13.18;88.77
28310;BME280;15571;50.974;13.936;2023-03-19T12:00:10;99966.16;;;13.24;88.72
28310;BME280;15571;50.974;13.936;2023-03-19T12:06:46;99972.28;;;13.27;86.17
28310;BME280;15571;50.974;13.936;2023-03-19T12:10:02;99973.09;;;13.29;85.86
28310;BME280;15571;50.974;13.936;2023-03-19T12:13:24;99972.13;;;13.33;87.33
28310;BME280;15571;50.974;13.936;2023-03-19T12:16:35;99966.84;;;13.34;87.04
28310;BME280;15571;50.974;13.936;2023-03-19T12:23:13;99979.84;;;13.42;87.63
28310;BME280;15571;50.974;13.936;2023-03-19T12:26:23;99976.28;;;13.46;88.54
28310;BME280;15571;50.974;13.936;2023-03-19T12:29:34;99972.84;;;13.43;85.07
28310;BME280;15571;50.974;13.936;2023-03-19T12:32:45;99976.28;;;13.46;84.02
28310;BME280;15571;50.974;13.936;2023-03-19T13:20:18;99968.00;;;14.03;85.88
28310;BME280;15571;50.974;13.936;2023-03-19T13:23:27;99965.41;;;14.01;86.78
28310;BME280;15571;50.974;13.936;2023-03-19T13:26:33;99969.69;;;14.05;87.15
28310;BME280;15571;50.974;13.936;2023-03-19T22:26:42;100151.72;;;10.43;100.00
28310;BME280;15571;50.974;13.936;2023-03-19T22:29:48;100156.06;;;10.39;100.00
28310;BME280;15571;50.974;13.936;2023-03-19T22:32:51;100155.25;;;10.30;100.00
28310;BME280;15571;50.974;13.936;2023-03-19T22:35:55;100163.97;;;10.24;100.00
28310;BME280;15571;50.974;13.936;2023-03-19T22:38:58;100157.91;;;10.19;100.00
28310;BME280;15571;50.974;13.936;2023-03-19T22:42:02;100157.06;;;10.12;100.00
28310;BME280;15571;50.974;13.936;2023-03-19T22:45:04;100169.31;;;10.08;100.00
28310;BME280;15571;50.974;13.936;2023-03-19T22:48:12;100170.19;;;10.07;100.00
28310;BME280;15571;50.974;13.936;2023-03-19T22:51:18;100166.69;;;10.08;100.00
28310;BME280;15571;50.974;13.936;2023-03-19T22:54:21;100164.94;;;10.07;100.00
28310;BME280;15571;50.974;13.936;2023-03-19T22:57:25;100156.22;;;10.08;100.00
28310;BME280;15571;50.974;13.936;2023-03-19T23:00:27;100162.31;;;10.12;100.00
28310;BME280;15571;50.974;13.936;2023-03-19T23:03:29;100164.06;;;10.13;100.00
28310;BME280;15571;50.974;13.936;2023-03-19T23:06:31;100158.81;;;10.13;100.00
28310;BME280;15571;50.974;13.936;2023-03-19T23:09:34;100158.81;;;10.10;100.00
28310;BME280;15571;50.974;13.936;2023-03-19T23:12:39;100163.19;;;10.08;100.00
28310;BME280;15571;50.974;13.936;2023-03-19T23:15:43;100160.56;;;10.08;100.00
28310;BME280;15571;50.974;13.936;2023-03-19T23:18:47;100163.19;;;10.06;100.00
28310;BME280;15571;50.974;13.936;2023-03-19T23:21:57;100152.72;;;10.05;100.00
28310;BME280;15571;50.974;13.936;2023-03-19T23:25:00;100159.72;;;10.04;100.00
28310;BME280;15571;50.974;13.936;2023-03-19T23:28:13;100156.25;;;10.01;100.00
28310;BME280;15571;50.974;13.936;2023-03-19T23:31:16;100166.72;;;10.01;100.00
28310;BME280;15571;50.974;13.936;2023-03-19T23:34:18;100164.94;;;10.01;100.00
28310;BME280;15571;50.974;13.936;2023-03-19T23:37:25;100161.47;;;10.02;100.00
28310;BME280;15571;50.974;13.936;2023-03-19T23:40:29;100164.13;;;9.99;100.00
28310;BME280;15571;50.974;13.936;2023-03-19T23:43:35;100163.22;;;10.00;100.00
28310;BME280;15571;50.974;13.936;2023-03-19T23:46:40;100155.38;;;9.99;100.00
28310;BME280;15571;50.974;13.936;2023-03-19T23:49:43;100155.38;;;10.02;100.00
28310;BME280;15571;50.974;13.936;2023-03-19T23:52:49;100152.75;;;10.03;100.00
28310;BME280;15571;50.974;13.936;2023-03-19T23:55:55;100156.22;;;10.05;100.00
28310;BME280;15571;50.974;13.936;2023-03-19T23:59:01;100157.97;;;10.03;100.00
